createdAt,value
2023-04-15T00:00:57.255Z,98152.44
2023-04-15T00:03:25.182Z,98155.09
2023-04-15T00:05:52.362Z,98145.28
2023-04-15T00:08:19.728Z,98151.16
2023-04-15T00:10:46.963Z,98143.97
2023-04-15T00:13:13.739Z,98144.97
2023-04-15T00:15:40.479Z,98135.97
2023-04-15T00:18:08.539Z,98132.59
2023-04-15T00:20:36.380Z,98121.41
2023-04-15T00:23:04.394Z,98134.84
2023-04-15T00:25:31.571Z,98130.00
2023-04-15T00:27:58.564Z,98126.09
2023-04-15T00:30:26.085Z,98125.38
2023-04-15T00:32:53.339Z,98117.53
2023-04-15T00:35:20.188Z,98128.50
2023-04-15T00:37:47.085Z,98133.91
2023-04-15T00:40:14.182Z,98123.06
2023-04-15T00:42:41.298Z,98126.34
2023-04-15T00:45:09.197Z,98132.06
2023-04-15T00:47:37.683Z,98126.56
2023-04-15T00:50:05.522Z,98132.34
2023-04-15T00:52:32.617Z,98129.75
2023-04-15T00:55:00.066Z,98122.19
2023-04-15T00:57:27.715Z,98128.59
2023-04-15T00:59:56.378Z,98126.00
2023-04-15T01:02:24.208Z,98129.56
2023-04-15T01:04:51.063Z,98126.50
2023-04-15T01:07:21.089Z,98129.31
2023-04-15T01:09:48.394Z,98130.44
2023-04-15T01:12:16.655Z,98132.34
2023-04-15T01:14:43.856Z,98128.59
2023-04-15T01:17:10.927Z,98123.66
2023-04-15T01:19:38.347Z,98124.09
2023-04-15T01:22:05.910Z,98120.78
2023-04-15T01:24:33.711Z,98121.94
2023-04-15T01:27:00.423Z,98124.44
2023-04-15T01:29:27.769Z,98123.75
2023-04-15T01:31:56.407Z,98117.81
2023-04-15T01:34:23.388Z,98114.13
2023-04-15T01:36:50.172Z,98112.66
2023-04-15T01:39:16.948Z,98106.34
2023-04-15T01:41:44.240Z,98104.41
2023-04-15T01:44:11.370Z,98097.81
2023-04-15T01:46:38.224Z,98100.81
2023-04-15T01:49:05.106Z,98099.53
2023-04-15T01:51:32.408Z,98095.97
2023-04-15T01:53:59.285Z,98091.53
2023-04-15T01:56:26.881Z,98086.53
2023-04-15T01:58:53.701Z,98086.59
2023-04-15T02:01:21.066Z,98076.56
2023-04-15T02:03:48.370Z,98076.19
2023-04-15T02:06:16.028Z,98076.47
2023-04-15T02:08:42.771Z,98079.25
2023-04-15T02:11:09.759Z,98082.63
2023-04-15T02:13:36.714Z,98080.47
2023-04-15T02:16:03.998Z,98084.13
2023-04-15T02:18:30.881Z,98077.00
2023-04-15T02:20:58.984Z,98084.28
2023-04-15T02:23:26.103Z,98080.03
2023-04-15T02:25:53.415Z,98084.03
2023-04-15T02:28:22.070Z,98086.94
2023-04-15T02:30:53.084Z,98089.09
2023-04-15T02:33:20.542Z,98090.19
2023-04-15T02:35:48.041Z,98085.69
2023-04-15T02:38:17.046Z,98085.25
2023-04-15T02:40:44.113Z,98088.78
2023-04-15T02:43:10.917Z,98095.13
2023-04-15T02:45:37.733Z,98089.63
2023-04-15T02:48:06.762Z,98089.63
2023-04-15T02:50:33.695Z,98090.00
2023-04-15T02:53:01.841Z,98087.75
2023-04-15T02:55:29.596Z,98088.69
2023-04-15T02:57:57.562Z,98087.75
2023-04-15T03:00:25.952Z,98092.94
2023-04-15T03:02:56.859Z,98096.25
2023-04-15T03:05:26.546Z,98095.25
2023-04-15T03:07:53.797Z,98087.38
2023-04-15T03:10:21.185Z,98091.31
2023-04-15T03:12:48.618Z,98093.78
2023-04-15T03:15:15.910Z,98090.78
2023-04-15T03:17:42.696Z,98090.09
2023-04-15T03:20:09.959Z,98089.13
2023-04-15T03:22:36.854Z,98094.88
2023-04-15T03:25:03.852Z,98096.31
2023-04-15T03:27:30.634Z,98094.97
2023-04-15T03:29:57.383Z,98089.72
2023-04-15T03:32:24.222Z,98081.31
2023-04-15T03:34:51.061Z,98075.59
2023-04-15T03:37:17.805Z,98076.69
2023-04-15T03:39:44.466Z,98086.28
2023-04-15T03:42:11.454Z,98077.50
2023-04-15T03:44:38.718Z,98067.94
2023-04-15T03:47:05.632Z,98078.19
2023-04-15T03:49:32.440Z,98073.97
2023-04-15T03:51:59.970Z,98071.91
2023-04-15T03:54:26.838Z,98079.72
2023-04-15T03:56:53.702Z,98073.84
2023-04-15T03:59:20.757Z,98086.59
2023-04-15T04:01:47.667Z,98074.50
2023-04-15T04:04:14.741Z,98069.59
2023-04-15T04:06:41.803Z,98073.84
2023-04-15T04:09:08.656Z,98082.97
2023-04-15T04:11:35.530Z,98083.88
2023-04-15T04:14:02.225Z,98082.91
2023-04-15T04:16:29.125Z,98081.53
2023-04-15T04:18:56.320Z,98090.84
2023-04-15T04:21:23.692Z,98085.63
2023-04-15T04:23:51.897Z,98086.75
2023-04-15T04:26:19.094Z,98086.44
2023-04-15T04:28:46.659Z,98087.63
2023-04-15T04:31:14.076Z,98087.28
2023-04-15T04:33:41.883Z,98089.00
2023-04-15T04:36:09.220Z,98077.19
2023-04-15T04:38:36.251Z,98083.25
2023-04-15T04:41:03.244Z,98079.00
2023-04-15T04:43:30.057Z,98081.88
2023-04-15T04:45:56.908Z,98087.50
2023-04-15T04:48:24.111Z,98083.56
2023-04-15T04:50:56.905Z,98088.75
2023-04-15T04:53:31.135Z,98085.88
2023-04-15T04:55:58.601Z,98088.22
2023-04-15T04:58:25.678Z,98090.41
2023-04-15T05:00:52.912Z,98086.44
2023-04-15T05:03:20.120Z,98089.06
2023-04-15T05:05:50.493Z,98095.50
2023-04-15T05:08:17.723Z,98089.88
2023-04-15T05:10:45.541Z,98092.88
2023-04-15T05:13:14.138Z,98091.25
2023-04-15T05:15:44.288Z,98090.41
2023-04-15T05:18:11.642Z,98087.09
2023-04-15T05:20:39.803Z,98090.38
2023-04-15T05:23:06.643Z,98091.16
2023-04-15T05:25:34.481Z,98092.41
2023-04-15T05:28:02.278Z,98089.50
2023-04-15T05:30:29.324Z,98090.03
2023-04-15T05:32:56.494Z,98098.16
2023-04-15T05:35:23.612Z,98101.75
2023-04-15T05:37:50.337Z,98101.19
2023-04-15T05:40:17.134Z,98099.41
2023-04-15T05:42:43.889Z,98092.28
2023-04-15T05:45:11.276Z,98098.28
2023-04-15T05:47:38.584Z,98100.19
2023-04-15T05:50:06.961Z,98103.09
2023-04-15T05:52:33.994Z,98097.59
2023-04-15T05:55:00.767Z,98099.94
2023-04-15T05:57:27.828Z,98098.44
2023-04-15T05:59:55.570Z,98096.88
2023-04-15T06:02:22.611Z,98096.75
2023-04-15T06:04:49.592Z,98091.97
2023-04-15T06:07:16.427Z,98104.03
2023-04-15T06:09:43.242Z,98105.09
2023-04-15T06:12:12.520Z,98100.72
2023-04-15T06:14:40.862Z,98097.50
2023-04-15T06:17:08.020Z,98090.78
2023-04-15T06:19:36.527Z,98089.72
2023-04-15T06:22:03.572Z,98091.59
2023-04-15T06:24:30.450Z,98089.28
2023-04-15T06:26:57.916Z,98083.53
2023-04-15T06:29:25.112Z,98094.22
2023-04-15T06:31:52.486Z,98088.06
2023-04-15T06:34:23.707Z,98096.00
2023-04-15T06:36:51.217Z,98087.97
2023-04-15T06:39:18.526Z,98085.94
2023-04-15T06:41:45.612Z,98095.41
2023-04-15T06:44:13.032Z,98093.91
2023-04-15T06:46:40.953Z,98084.13
2023-04-15T06:49:09.159Z,98078.63
2023-04-15T06:51:41.146Z,98080.47
2023-04-15T06:54:10.138Z,98088.47
2023-04-15T06:56:51.740Z,98106.84
2023-04-15T06:59:26.670Z,98095.44
2023-04-15T07:02:03.256Z,98096.72
2023-04-15T07:04:41.071Z,98098.81
2023-04-15T07:07:18.124Z,98100.25
2023-04-15T07:09:47.780Z,98090.31
2023-04-15T07:12:18.195Z,98094.16
2023-04-15T07:14:45.658Z,98092.41
2023-04-15T07:17:14.054Z,98094.09
2023-04-15T07:19:41.280Z,98104.34
2023-04-15T07:22:08.676Z,98094.41
2023-04-15T07:24:38.316Z,98089.72
2023-04-15T07:27:06.116Z,98094.94
2023-04-15T07:29:37.865Z,98083.59
2023-04-15T07:32:05.522Z,98082.41
2023-04-15T07:34:33.360Z,98093.38
2023-04-15T07:37:00.252Z,98094.94
2023-04-15T07:39:27.724Z,98099.06
2023-04-15T07:41:54.834Z,98097.94
2023-04-15T07:44:22.225Z,98097.28
2023-04-15T07:46:50.355Z,98096.84
2023-04-15T07:49:20.124Z,98100.44
2023-04-15T07:51:48.465Z,98098.78
2023-04-15T07:54:15.995Z,98099.00
2023-04-15T07:56:43.253Z,98097.66
2023-04-15T07:59:10.852Z,98097.34
2023-04-15T08:01:38.189Z,98094.47
2023-04-15T08:04:05.851Z,98099.63
2023-04-15T08:06:34.305Z,98094.78
2023-04-15T08:09:03.732Z,98106.59
2023-04-15T08:11:32.192Z,98095.28
2023-04-15T08:14:02.095Z,98101.03
2023-04-15T08:16:30.053Z,98098.88
2023-04-15T08:18:58.124Z,98103.81
2023-04-15T08:21:25.610Z,98098.22
2023-04-15T08:23:55.987Z,98105.47
2023-04-15T08:26:23.291Z,98107.69
2023-04-15T08:28:51.450Z,98106.88
2023-04-15T08:31:22.249Z,98105.72
2023-04-15T08:33:49.592Z,98114.97
2023-04-15T08:36:18.442Z,98113.88
2023-04-15T08:38:46.142Z,98119.63
2023-04-15T08:41:22.490Z,98107.94
2023-04-15T08:43:56.167Z,98115.06
2023-04-15T08:46:24.410Z,98114.75
2023-04-15T08:48:57.626Z,98114.75
2023-04-15T08:51:25.630Z,98112.28
2023-04-15T08:53:53.631Z,98116.31
2023-04-15T08:56:28.162Z,98120.66
2023-04-15T08:58:58.687Z,98129.09
2023-04-15T09:01:26.164Z,98132.09
2023-04-15T09:03:55.100Z,98124.38
2023-04-15T09:06:23.116Z,98116.22
2023-04-15T09:08:53.655Z,98116.94
2023-04-15T09:11:23.456Z,98131.06
2023-04-15T09:13:51.104Z,98133.34
2023-04-15T09:16:24.371Z,98129.25
2023-04-15T09:19:00.631Z,98131.44
2023-04-15T09:21:28.750Z,98126.47
2023-04-15T09:24:01.701Z,98137.41
2023-04-15T09:26:35.141Z,98139.88
2023-04-15T09:29:11.053Z,98140.97
2023-04-15T09:31:42.407Z,98144.22
2023-04-15T09:34:15.264Z,98150.25
2023-04-15T09:37:11.341Z,98151.38
2023-04-15T09:39:52.355Z,98147.19
2023-04-15T09:42:29.364Z,98151.84
2023-04-15T09:44:56.451Z,98150.31
2023-04-15T09:47:32.330Z,98164.22
2023-04-15T09:50:00.656Z,98161.25
2023-04-15T09:52:29.071Z,98156.78
2023-04-15T09:55:00.391Z,98162.75
2023-04-15T09:57:38.059Z,98157.50
2023-04-15T10:00:07.308Z,98161.25
2023-04-15T10:02:38.628Z,98159.25
2023-04-15T10:05:07.801Z,98169.19
2023-04-15T10:07:39.398Z,98168.59
2023-04-15T10:10:08.014Z,98169.38
2023-04-15T10:12:37.976Z,98171.88
2023-04-15T10:15:07.862Z,98174.41
2023-04-15T10:17:35.747Z,98172.69
2023-04-15T10:20:05.121Z,98183.38
2023-04-15T10:22:35.434Z,98179.66
2023-04-15T10:25:03.142Z,98184.22
2023-04-15T10:27:30.649Z,98181.22
2023-04-15T10:29:58.161Z,98191.06
2023-04-15T10:32:26.035Z,98192.47
2023-04-15T10:34:54.548Z,98199.97
2023-04-15T10:37:23.599Z,98202.09
2023-04-15T10:39:53.562Z,98203.91
2023-04-15T10:42:20.839Z,98199.03
2023-04-15T10:44:54.814Z,98204.72
2023-04-15T10:47:25.969Z,98215.19
2023-04-15T10:50:00.929Z,98211.91
2023-04-15T10:52:29.232Z,98212.38
2023-04-15T10:55:16.341Z,98216.94
2023-04-15T10:57:45.766Z,98224.78
2023-04-15T11:00:16.820Z,98215.84
2023-04-15T11:02:58.218Z,98221.66
2023-04-15T11:05:49.367Z,98216.25
2023-04-15T11:08:19.960Z,98220.78
2023-04-15T11:10:56.642Z,98224.84
2023-04-15T11:13:28.191Z,98224.50
2023-04-15T11:15:59.737Z,98235.03
2023-04-15T11:18:29.181Z,98231.38
2023-04-15T11:21:04.283Z,98237.38
2023-04-15T11:23:34.646Z,98237.75
2023-04-15T11:26:03.687Z,98237.66
2023-04-15T11:28:32.260Z,98226.13
2023-04-15T11:31:05.079Z,98226.91
2023-04-15T11:33:32.763Z,98239.75
2023-04-15T11:36:00.128Z,98241.44
2023-04-15T11:38:27.250Z,98242.94
2023-04-15T11:40:57.354Z,98245.41
2023-04-15T11:43:25.601Z,98247.06
2023-04-15T11:45:56.871Z,98246.28
2023-04-15T11:48:26.309Z,98244.94
2023-04-15T11:50:56.229Z,98248.97
2023-04-15T11:53:24.200Z,98251.78
2023-04-15T11:55:53.087Z,98248.97
2023-04-15T11:58:25.624Z,98247.13
2023-04-15T12:00:54.975Z,98245.97
2023-04-15T12:03:27.874Z,98242.22
2023-04-15T12:06:23.020Z,98248.34
2023-04-15T12:08:53.685Z,98251.31
2023-04-15T12:11:21.602Z,98260.34
2023-04-15T12:13:50.226Z,98258.84
2023-04-15T12:16:21.003Z,98253.59
2023-04-15T12:18:51.392Z,98259.94
2023-04-15T12:21:22.417Z,98264.97
2023-04-15T12:23:55.194Z,98265.06
2023-04-15T12:26:31.725Z,98271.66
2023-04-15T12:29:02.846Z,98268.59
2023-04-15T12:31:30.171Z,98274.75
2023-04-15T12:34:01.662Z,98280.09
2023-04-15T12:36:29.132Z,98285.25
2023-04-15T12:38:56.351Z,98276.31
2023-04-15T12:41:27.855Z,98293.28
2023-04-15T12:43:54.958Z,98294.78
2023-04-15T12:46:22.198Z,98297.44
2023-04-15T12:48:49.413Z,98297.22
2023-04-15T12:51:16.444Z,98297.16
2023-04-15T12:53:43.750Z,98308.28
2023-04-15T12:56:10.504Z,98299.06
2023-04-15T12:58:37.662Z,98309.78
2023-04-15T13:01:04.813Z,98303.00
2023-04-15T13:03:32.289Z,98320.16
2023-04-15T13:05:59.572Z,98318.66
2023-04-15T13:08:26.421Z,98312.25
2023-04-15T13:10:53.618Z,98316.84
2023-04-15T13:13:23.670Z,98316.41
2023-04-15T13:15:51.334Z,98322.63
2023-04-15T13:18:18.261Z,98317.91
2023-04-15T13:20:45.419Z,98323.31
2023-04-15T13:23:12.807Z,98333.06
2023-04-15T13:25:39.784Z,98329.53
2023-04-15T13:28:09.844Z,98331.56
2023-04-15T13:30:38.328Z,98335.81
2023-04-15T13:33:06.589Z,98343.91
2023-04-15T13:35:34.319Z,98345.63
2023-04-15T13:38:04.452Z,98352.13
2023-04-15T13:40:31.742Z,98353.94
2023-04-15T13:42:59.264Z,98350.66
2023-04-15T13:45:26.969Z,98350.72
2023-04-15T13:47:54.377Z,98353.53
2023-04-15T13:50:21.677Z,98360.75
2023-04-15T13:52:48.726Z,98361.66
2023-04-15T13:55:20.536Z,98366.41
2023-04-15T13:57:51.027Z,98371.59
2023-04-15T14:00:19.184Z,98373.19
2023-04-15T14:02:47.190Z,98372.72
2023-04-15T14:05:15.062Z,98373.69
2023-04-15T14:07:42.596Z,98377.75
2023-04-15T14:10:13.440Z,98381.28
2023-04-15T14:12:41.314Z,98383.16
2023-04-15T14:15:09.339Z,98385.53
2023-04-15T14:17:36.628Z,98390.44
2023-04-15T14:20:04.219Z,98397.75
2023-04-15T14:22:31.277Z,98400.19
2023-04-15T14:25:01.104Z,98399.84
2023-04-15T14:27:29.147Z,98404.69
2023-04-15T14:29:56.182Z,98411.16
2023-04-15T14:32:23.742Z,98410.84
2023-04-15T14:34:50.620Z,98415.03
2023-04-15T14:37:17.596Z,98415.09
2023-04-15T14:39:44.591Z,98421.59
2023-04-15T14:42:11.576Z,98418.69
2023-04-15T14:44:40.399Z,98429.94
2023-04-15T14:47:07.411Z,98425.25
2023-04-15T14:49:34.412Z,98437.75
2023-04-15T14:52:01.218Z,98443.50
2023-04-15T14:54:28.689Z,98443.13
2023-04-15T14:56:56.593Z,98436.91
2023-04-15T14:59:24.031Z,98441.56
2023-04-15T15:01:51.085Z,98453.13
2023-04-15T15:04:18.784Z,98448.75
2023-04-15T15:06:48.609Z,98449.00
2023-04-15T15:09:20.180Z,98448.75
2023-04-15T15:11:50.234Z,98456.94
2023-04-15T15:14:19.728Z,98457.28
2023-04-15T15:16:46.582Z,98473.09
2023-04-15T15:19:14.181Z,98471.84
2023-04-15T15:21:41.197Z,98466.34
2023-04-15T15:24:08.023Z,98475.41
2023-04-15T15:26:35.107Z,98488.31
2023-04-15T15:29:02.508Z,98481.19
2023-04-15T15:31:29.552Z,98479.25
2023-04-15T15:33:56.742Z,98482.94
2023-04-15T15:36:23.581Z,98481.94
2023-04-15T15:38:50.761Z,98481.94
2023-04-15T15:41:17.898Z,98485.28
2023-04-15T15:43:44.774Z,98488.31
2023-04-15T15:46:12.106Z,98494.91
2023-04-15T15:48:39.001Z,98488.88
2023-04-15T15:51:07.535Z,98490.22
2023-04-15T15:53:35.187Z,98488.03
2023-04-15T15:56:04.186Z,98490.97
2023-04-15T15:58:31.851Z,98491.63
2023-04-15T16:01:01.108Z,98493.66
2023-04-15T16:03:29.498Z,98495.91
2023-04-15T16:05:56.923Z,98504.59
2023-04-15T16:08:23.805Z,98500.06
2023-04-15T16:10:50.901Z,98499.91
2023-04-15T16:13:17.933Z,98509.00
2023-04-15T16:15:44.840Z,98503.75
2023-04-15T16:18:11.898Z,98510.88
2023-04-15T16:20:39.198Z,98511.38
2023-04-15T16:23:13.034Z,98504.63
2023-04-15T16:25:40.057Z,98507.88
2023-04-15T16:28:15.004Z,98507.22
2023-04-15T16:30:52.574Z,98520.97
2023-04-15T16:33:19.445Z,98511.72
2023-04-15T16:35:46.272Z,98516.38
2023-04-15T16:38:13.271Z,98516.91
2023-04-15T16:40:40.071Z,98534.81
2023-04-15T16:43:08.525Z,98528.31
2023-04-15T16:45:35.403Z,98522.75
2023-04-15T16:48:02.329Z,98534.16
2023-04-15T16:50:29.578Z,98532.06
2023-04-15T16:52:56.490Z,98538.41
2023-04-15T16:55:23.879Z,98529.50
2023-04-15T16:58:00.482Z,98533.06
2023-04-15T17:00:30.449Z,98539.94
2023-04-15T17:02:57.806Z,98535.13
2023-04-15T17:05:27.881Z,98547.28
2023-04-15T17:07:58.027Z,98546.88
2023-04-15T17:10:25.344Z,98536.75
2023-04-15T17:12:53.049Z,98544.66
2023-04-15T17:15:20.446Z,98551.59
2023-04-15T17:17:47.519Z,98548.88
2023-04-15T17:20:14.641Z,98558.97
2023-04-15T17:22:41.745Z,98564.88
2023-04-15T17:25:09.547Z,98570.56
2023-04-15T17:27:36.650Z,98559.63
2023-04-15T17:30:08.110Z,98567.09
2023-04-15T17:32:35.853Z,98568.06
2023-04-15T17:35:06.678Z,98568.19
2023-04-15T17:37:34.691Z,98565.00
2023-04-15T17:40:02.142Z,98575.63
2023-04-15T17:42:32.456Z,98577.97
2023-04-15T17:44:59.908Z,98580.47
2023-04-15T17:47:26.966Z,98591.38
2023-04-15T17:49:54.127Z,98592.34
2023-04-15T17:52:21.948Z,98594.66
2023-04-15T17:54:49.526Z,98599.31
2023-04-15T17:57:17.096Z,98604.78
2023-04-15T17:59:45.309Z,98611.72
2023-04-15T18:02:12.256Z,98603.50
2023-04-15T18:04:40.028Z,98607.38
2023-04-15T18:07:07.211Z,98606.97
2023-04-15T18:09:34.427Z,98611.75
2023-04-15T18:12:02.302Z,98615.34
2023-04-15T18:14:34.715Z,98617.78
2023-04-15T18:17:05.495Z,98622.72
2023-04-15T18:19:32.862Z,98628.41
2023-04-15T18:22:00.729Z,98627.13
2023-04-15T18:24:28.524Z,98637.91
2023-04-15T18:26:56.961Z,98638.97
2023-04-15T18:29:24.011Z,98648.09
2023-04-15T18:31:50.823Z,98646.72
2023-04-15T18:34:18.067Z,98650.03
2023-04-15T18:36:44.906Z,98662.16
2023-04-15T18:39:12.095Z,98666.22
2023-04-15T18:41:38.863Z,98659.72
2023-04-15T18:44:05.753Z,98667.03
2023-04-15T18:46:32.585Z,98668.88
2023-04-15T18:48:59.706Z,98670.47
2023-04-15T18:51:27.810Z,98674.38
2023-04-15T18:53:54.680Z,98671.63
2023-04-15T18:56:22.088Z,98674.25
2023-04-15T18:59:09.013Z,98681.25
2023-04-15T19:01:37.088Z,98691.13
2023-04-15T19:04:04.517Z,98687.47
2023-04-15T19:06:31.278Z,98689.78
2023-04-15T19:08:59.002Z,98698.91
2023-04-15T19:11:26.609Z,98695.31
2023-04-15T19:13:53.777Z,98698.91
2023-04-15T19:16:20.858Z,98704.41
2023-04-15T19:18:47.672Z,98710.75
2023-04-15T19:21:14.692Z,98713.50
2023-04-15T19:23:46.171Z,98715.56
2023-04-15T19:26:13.002Z,98715.44
2023-04-15T19:28:40.401Z,98713.66
2023-04-15T19:31:07.777Z,98727.16
2023-04-15T19:33:34.842Z,98723.28
2023-04-15T19:36:03.506Z,98722.53
2023-04-15T19:38:31.240Z,98727.53
2023-04-15T19:40:58.673Z,98722.97
2023-04-15T19:43:25.865Z,98730.03
2023-04-15T19:45:55.138Z,98720.91
2023-04-15T19:48:23.290Z,98725.03
2023-04-15T19:50:50.737Z,98725.59
2023-04-15T19:53:17.598Z,98722.47
2023-04-15T19:55:44.898Z,98728.81
2023-04-15T19:58:11.897Z,98732.38
2023-04-15T20:00:39.032Z,98739.81
2023-04-15T20:03:06.094Z,98732.19
2023-04-15T20:05:33.150Z,98730.00
2023-04-15T20:08:01.437Z,98727.34
2023-04-15T20:10:30.690Z,98739.47
2023-04-15T20:12:57.643Z,98737.66
2023-04-15T20:15:24.994Z,98735.75
2023-04-15T20:17:51.825Z,98736.00
2023-04-15T20:20:19.212Z,98733.03
2023-04-15T20:22:46.148Z,98729.06
2023-04-15T20:25:13.207Z,98737.66
2023-04-15T20:27:40.067Z,98740.72
2023-04-15T20:30:07.947Z,98731.59
2023-04-15T20:32:38.967Z,98739.06
2023-04-15T20:35:07.152Z,98742.66
2023-04-15T20:37:35.075Z,98746.53
2023-04-15T20:40:02.541Z,98748.19
2023-04-15T20:42:34.286Z,98749.97
2023-04-15T20:45:01.496Z,98750.66
2023-04-15T20:47:28.485Z,98751.50
2023-04-15T20:49:55.310Z,98747.06
2023-04-15T20:52:22.203Z,98755.47
2023-04-15T20:54:49.183Z,98754.63
2023-04-15T20:57:16.146Z,98763.88
2023-04-15T20:59:43.357Z,98760.00
2023-04-15T21:02:10.237Z,98755.59
2023-04-15T21:04:38.787Z,98761.97
2023-04-15T21:07:05.908Z,98759.59
2023-04-15T21:09:32.660Z,98767.19
2023-04-15T21:12:01.625Z,98764.56
2023-04-15T21:14:29.243Z,98769.81
2023-04-15T21:16:57.901Z,98771.03
2023-04-15T21:19:24.672Z,98771.47
2023-04-15T21:21:51.667Z,98775.47
2023-04-15T21:24:18.441Z,98775.06
2023-04-15T21:26:45.322Z,98775.75
2023-04-15T21:29:12.252Z,98779.59
2023-04-15T21:31:39.355Z,98776.44
2023-04-15T21:34:06.190Z,98780.97
2023-04-15T21:36:33.097Z,98786.81
2023-04-15T21:39:00.273Z,98793.41
2023-04-15T21:41:27.394Z,98800.31
2023-04-15T21:43:54.335Z,98797.00
2023-04-15T21:46:25.444Z,98811.09
2023-04-15T21:48:59.703Z,98805.56
2023-04-15T21:51:26.986Z,98806.94
2023-04-15T21:53:56.862Z,98810.81
2023-04-15T21:56:24.912Z,98818.81
2023-04-15T21:58:55.088Z,98817.81
2023-04-15T22:01:21.815Z,98824.06
2023-04-15T22:03:48.811Z,98814.69
2023-04-15T22:06:16.146Z,98822.28
2023-04-15T22:08:54.798Z,98828.63
2023-04-15T22:11:27.459Z,98832.91
2023-04-15T22:13:54.937Z,98835.38
2023-04-15T22:16:21.907Z,98837.03
2023-04-15T22:18:48.939Z,98840.34
2023-04-15T22:21:15.991Z,98827.53
2023-04-15T22:23:46.576Z,98828.72
2023-04-15T22:26:13.537Z,98837.56
2023-04-15T22:28:40.306Z,98842.00
2023-04-15T22:31:07.127Z,98833.44
2023-04-15T22:33:34.225Z,98837.00
2023-04-15T22:36:01.049Z,98841.84
2023-04-15T22:38:27.799Z,98848.59
2023-04-15T22:40:54.622Z,98847.50
2023-04-15T22:43:21.426Z,98858.28
2023-04-15T22:45:53.324Z,98851.06
2023-04-15T22:48:20.277Z,98861.00
2023-04-15T22:50:47.117Z,98855.75
2023-04-15T22:53:16.007Z,98866.00
2023-04-15T22:55:47.293Z,98851.75
2023-04-15T22:58:14.913Z,98867.06
2023-04-15T23:00:41.828Z,98864.16
2023-04-15T23:03:08.940Z,98862.38
2023-04-15T23:05:36.051Z,98866.94
2023-04-15T23:08:03.365Z,98863.59
2023-04-15T23:10:30.127Z,98869.94
2023-04-15T23:12:56.906Z,98870.41
2023-04-15T23:15:23.880Z,98870.25
2023-04-15T23:17:50.713Z,98872.19
2023-04-15T23:20:17.710Z,98880.63
2023-04-15T23:22:44.503Z,98873.72
2023-04-15T23:25:13.663Z,98885.03
2023-04-15T23:27:40.538Z,98874.00
2023-04-15T23:30:08.411Z,98877.28
2023-04-15T23:32:35.352Z,98873.88
2023-04-15T23:35:02.197Z,98880.50
2023-04-15T23:37:30.394Z,98872.31
2023-04-15T23:39:57.243Z,98873.47
2023-04-15T23:42:26.678Z,98886.44
2023-04-15T23:44:53.599Z,98883.41
2023-04-15T23:47:20.558Z,98879.00
2023-04-15T23:49:47.723Z,98881.16
2023-04-15T23:52:14.851Z,98887.56
2023-04-15T23:54:41.689Z,98888.94
2023-04-15T23:57:08.714Z,98891.38
2023-04-15T23:59:35.723Z,98893.59
